createdAt,value
2023-02-03T00:00:57.904Z,0.85
2023-02-03T00:04:00.322Z,0.70
2023-02-03T00:07:02.801Z,0.50
2023-02-03T00:10:07.054Z,0.90
2023-02-03T00:13:09.531Z,0.85
2023-02-03T00:16:11.908Z,0.35
2023-02-03T00:19:15.948Z,0.82
2023-02-03T00:22:19.750Z,0.90
2023-02-03T00:25:22.093Z,0.40
2023-02-03T00:28:28.254Z,0.60
2023-02-03T00:31:30.920Z,0.52
2023-02-03T00:34:34.549Z,0.85
2023-02-03T00:37:36.870Z,0.50
2023-02-03T00:40:39.613Z,0.70
2023-02-03T00:43:42.117Z,0.70
2023-02-03T00:46:44.526Z,0.80
2023-02-03T00:49:47.697Z,0.93
2023-02-03T00:52:50.105Z,1.00
2023-02-03T00:55:52.551Z,0.77
2023-02-03T00:58:55.033Z,0.60
2023-02-03T01:01:57.522Z,0.47
2023-02-03T01:05:00.450Z,0.65
2023-02-03T01:08:03.339Z,0.70
2023-02-03T01:11:07.751Z,0.70
2023-02-03T01:14:10.507Z,1.00
2023-02-03T01:17:12.876Z,1.00
2023-02-03T01:20:16.951Z,0.60
2023-02-03T01:23:19.360Z,0.73
2023-02-03T01:26:23.481Z,0.82
2023-02-03T01:29:26.433Z,2.03
2023-02-03T01:32:28.885Z,1.40
2023-02-03T01:35:35.057Z,1.52
2023-02-03T01:38:38.953Z,1.47
2023-02-03T01:41:41.720Z,1.70
2023-02-03T01:44:45.580Z,1.48
2023-02-03T01:47:58.678Z,1.17
2023-02-03T01:51:02.900Z,0.80
2023-02-03T01:54:07.354Z,1.27
2023-02-03T01:57:43.236Z,0.93
2023-02-03T02:00:47.212Z,0.90
2023-02-03T02:03:54.369Z,1.23
2023-02-03T02:06:58.264Z,1.17
2023-02-03T02:10:01.334Z,0.90
2023-02-03T02:13:05.430Z,1.10
2023-02-03T02:16:18.028Z,1.55
2023-02-03T02:20:20.773Z,1.10
2023-02-03T02:23:48.810Z,1.20
2023-02-03T02:27:00.689Z,1.27
2023-02-03T02:30:27.653Z,1.20
2023-02-03T02:33:42.898Z,1.20
2023-02-03T02:36:54.334Z,1.10
2023-02-03T02:40:01.865Z,1.10
2023-02-03T02:43:08.586Z,0.80
2023-02-03T02:46:16.213Z,0.98
2023-02-03T02:49:18.696Z,1.33
2023-02-03T02:52:24.410Z,1.17
2023-02-03T02:55:32.443Z,0.80
2023-02-03T02:58:41.071Z,1.25
2023-02-03T03:01:43.540Z,1.55
2023-02-03T03:04:49.863Z,1.70
2023-02-03T03:08:02.723Z,2.10
2023-02-03T03:11:05.743Z,1.33
2023-02-03T03:14:09.968Z,1.37
2023-02-03T03:17:19.354Z,2.33
2023-02-03T03:20:26.012Z,4.20
2023-02-03T03:23:32.165Z,3.95
2023-02-03T03:26:54.546Z,3.22
2023-02-03T03:30:02.201Z,2.90
2023-02-03T03:33:07.572Z,1.23
2023-02-03T03:36:19.232Z,2.30
2023-02-03T03:39:50.746Z,2.45
2023-02-03T03:42:58.930Z,2.22
2023-02-03T03:46:12.479Z,1.30
2023-02-03T03:49:18.463Z,0.93
2023-02-03T03:52:26.679Z,0.90
2023-02-03T03:55:34.142Z,0.82
2023-02-03T03:58:40.255Z,1.27
2023-02-03T04:01:43.116Z,1.13
2023-02-03T04:04:47.711Z,0.90
2023-02-03T04:07:50.093Z,0.77
2023-02-03T04:10:52.549Z,0.70
2023-02-03T04:13:54.945Z,0.57
2023-02-03T04:16:58.714Z,0.80
2023-02-03T04:20:01.145Z,0.70
2023-02-03T04:23:03.523Z,0.60
2023-02-03T04:26:05.932Z,0.75
2023-02-03T04:29:08.415Z,0.82
2023-02-03T04:32:10.904Z,1.40
2023-02-03T04:35:13.805Z,1.48
2023-02-03T04:38:16.139Z,2.07
2023-02-03T04:41:18.690Z,1.67
2023-02-03T04:44:21.129Z,2.58
2023-02-03T04:47:23.565Z,1.53
2023-02-03T04:50:26.177Z,1.60
2023-02-03T04:53:29.145Z,4.05
2023-02-03T04:56:31.452Z,1.85
2023-02-03T04:59:34.064Z,1.17
2023-02-03T05:02:36.431Z,1.50
2023-02-03T05:05:38.909Z,2.47
2023-02-03T05:08:41.268Z,0.97
2023-02-03T05:11:43.677Z,1.10
2023-02-03T05:14:46.062Z,1.08
2023-02-03T05:17:48.432Z,0.90
2023-02-03T05:20:50.839Z,1.10
2023-02-03T05:23:53.284Z,1.10
2023-02-03T05:26:55.667Z,1.00
2023-02-03T05:29:58.075Z,1.08
2023-02-03T05:33:00.512Z,1.40
2023-02-03T05:36:02.976Z,2.15
2023-02-03T05:39:05.372Z,1.70
2023-02-03T05:42:07.932Z,2.35
2023-02-03T05:45:10.489Z,2.42
2023-02-03T05:48:12.903Z,1.67
2023-02-03T05:51:15.277Z,2.40
2023-02-03T05:54:17.636Z,2.53
2023-02-03T05:57:19.961Z,1.30
2023-02-03T06:00:24.881Z,1.48
2023-02-03T06:03:27.456Z,2.13
2023-02-03T06:06:33.949Z,2.08
2023-02-03T06:09:36.379Z,2.10
2023-02-03T06:12:39.145Z,1.60
2023-02-03T06:15:42.152Z,1.40
2023-02-03T06:18:44.508Z,2.13
2023-02-03T06:21:46.912Z,3.17
2023-02-03T06:24:49.819Z,3.05
2023-02-03T06:27:52.269Z,1.80
2023-02-03T06:30:54.695Z,1.23
2023-02-03T06:33:57.411Z,2.22
2023-02-03T06:36:59.861Z,1.80
2023-02-03T06:40:02.964Z,0.90
2023-02-03T06:43:05.592Z,1.52
2023-02-03T06:46:08.024Z,1.38
2023-02-03T06:49:10.784Z,1.67
2023-02-03T06:52:13.325Z,1.10
2023-02-03T06:55:15.927Z,1.80
2023-02-03T06:58:18.296Z,1.65
2023-02-03T07:01:20.895Z,1.40
2023-02-03T07:04:23.816Z,1.75
2023-02-03T07:07:26.284Z,1.33
2023-02-03T07:10:28.933Z,1.80
2023-02-03T07:13:31.472Z,1.90
2023-02-03T07:16:34.348Z,1.75
2023-02-03T07:19:36.721Z,1.53
2023-02-03T07:22:42.030Z,1.55
2023-02-03T07:25:44.879Z,2.95
2023-02-03T07:28:47.403Z,3.72
2023-02-03T07:31:49.930Z,3.20
2023-02-03T07:34:52.445Z,4.32
2023-02-03T07:37:54.807Z,9.77
2023-02-03T07:40:57.475Z,9.20
2023-02-03T07:43:59.841Z,7.75
2023-02-03T07:47:02.629Z,6.22
2023-02-03T07:50:05.265Z,3.20
2023-02-03T07:53:11.173Z,4.43
2023-02-03T07:56:13.988Z,2.90
2023-02-03T07:59:17.421Z,1.30
2023-02-03T08:02:19.803Z,1.25
2023-02-03T08:05:22.350Z,1.63
2023-02-03T08:08:24.941Z,1.30
2023-02-03T08:11:27.465Z,1.53
2023-02-03T08:14:31.273Z,1.65
2023-02-03T08:17:33.817Z,1.63
2023-02-03T08:20:36.179Z,2.20
2023-02-03T08:23:38.812Z,2.88
2023-02-03T08:26:41.174Z,3.47
2023-02-03T08:29:44.557Z,10.98
2023-02-03T08:32:46.906Z,6.65
2023-02-03T08:35:50.429Z,2.03
2023-02-03T08:38:52.926Z,2.55
2023-02-03T08:41:55.249Z,1.37
2023-02-03T08:44:58.176Z,3.42
2023-02-03T08:48:00.687Z,2.63
2023-02-03T08:51:09.290Z,1.90
2023-02-03T08:54:12.089Z,3.20
2023-02-03T08:57:14.926Z,2.53
2023-02-03T09:00:17.658Z,3.47
2023-02-03T09:03:20.188Z,2.78
2023-02-03T09:06:24.656Z,2.25
2023-02-03T09:09:29.116Z,3.58
2023-02-03T09:12:31.584Z,3.20
2023-02-03T09:15:34.113Z,2.25
2023-02-03T09:18:36.453Z,2.28
2023-02-03T09:21:44.997Z,2.30
2023-02-03T09:24:51.340Z,2.67
2023-02-03T09:27:53.814Z,2.47
2023-02-03T09:31:03.482Z,2.67
2023-02-03T09:34:06.199Z,2.50
2023-02-03T09:37:09.003Z,3.50
2023-02-03T09:40:24.591Z,3.67
2023-02-03T09:43:47.632Z,3.23
2023-02-03T09:47:00.829Z,3.47
2023-02-03T09:50:07.647Z,4.00
2023-02-03T09:53:28.535Z,3.50
2023-02-03T09:56:34.511Z,4.40
2023-02-03T09:59:36.887Z,4.38
2023-02-03T10:02:50.655Z,4.47
2023-02-03T10:05:58.036Z,3.75
2023-02-03T10:09:21.617Z,4.90
2023-02-03T10:12:38.378Z,4.97
2023-02-03T10:15:52.919Z,5.40
2023-02-03T10:19:01.591Z,5.85
2023-02-03T10:22:08.253Z,6.85
2023-02-03T10:25:20.844Z,7.40
2023-02-03T10:28:29.949Z,6.57
2023-02-03T10:31:36.590Z,5.38
2023-02-03T10:34:39.867Z,4.78
2023-02-03T10:37:46.962Z,4.18
2023-02-03T10:40:49.430Z,2.95
2023-02-03T10:43:53.224Z,3.30
2023-02-03T10:46:55.586Z,2.63
2023-02-03T10:49:58.815Z,2.50
2023-02-03T10:53:35.897Z,1.58
2023-02-03T10:56:40.149Z,3.40
2023-02-03T10:59:45.242Z,1.80
2023-02-03T11:02:55.588Z,2.47
2023-02-03T11:06:06.816Z,1.73
2023-02-03T11:09:28.924Z,1.73
2023-02-03T11:12:31.426Z,1.88
2023-02-03T11:15:33.901Z,2.60
2023-02-03T11:18:44.015Z,2.03
2023-02-03T11:21:49.409Z,1.80
2023-02-03T11:24:52.124Z,1.88
2023-02-03T11:27:56.075Z,1.53
2023-02-03T11:30:59.072Z,2.03
2023-02-03T11:34:15.114Z,1.90
2023-02-03T11:37:27.091Z,1.67
2023-02-03T11:40:34.380Z,1.83
2023-02-03T11:43:36.901Z,1.52
2023-02-03T11:46:40.518Z,1.48
2023-02-03T11:50:07.726Z,1.77
2023-02-03T11:53:24.045Z,2.25
2023-02-03T11:56:45.339Z,4.30
2023-02-03T11:59:53.595Z,2.50
2023-02-03T12:03:14.635Z,2.10
2023-02-03T12:06:55.762Z,4.35
2023-02-03T12:10:07.813Z,3.58
2023-02-03T12:13:32.093Z,4.70
2023-02-03T12:17:06.460Z,3.50
2023-02-03T12:20:42.643Z,4.05
2023-02-03T12:24:25.410Z,4.27
2023-02-03T12:27:44.941Z,2.60
2023-02-03T12:30:57.524Z,4.68
2023-02-03T12:34:13.637Z,4.10
2023-02-03T12:37:43.606Z,4.93
2023-02-03T12:40:59.796Z,0.90
2023-02-03T12:44:11.183Z,2.75
2023-02-03T12:47:50.766Z,1.48
2023-02-03T12:51:03.501Z,2.90
2023-02-03T12:54:45.443Z,0.75
2023-02-03T12:58:00.142Z,0.30
2023-02-03T13:01:20.034Z,0.70
2023-02-03T13:04:41.392Z,1.90
2023-02-03T13:07:51.107Z,1.53
2023-02-03T13:11:05.561Z,1.60
2023-02-03T13:14:20.653Z,1.10
2023-02-03T13:17:46.707Z,1.52
2023-02-03T13:20:49.204Z,0.43
2023-02-03T13:23:51.885Z,1.35
2023-02-03T13:27:14.197Z,0.30
2023-02-03T13:30:44.059Z,0.27
2023-02-03T13:33:49.150Z,0.30
2023-02-03T13:37:13.010Z,0.35
2023-02-03T13:40:40.840Z,0.47
2023-02-03T13:43:51.355Z,0.77
2023-02-03T13:46:56.119Z,0.98
2023-02-03T13:50:04.106Z,1.48
2023-02-03T13:53:16.537Z,1.63
2023-02-03T13:56:24.306Z,1.80
2023-02-03T13:59:37.385Z,2.00
2023-02-03T14:02:53.129Z,1.70
2023-02-03T14:05:57.437Z,1.27
2023-02-03T14:09:00.249Z,2.42
2023-02-03T14:12:22.364Z,2.20
2023-02-03T14:15:33.539Z,1.00
2023-02-03T14:18:45.168Z,0.43
2023-02-03T14:22:17.404Z,1.30
2023-02-03T14:25:21.335Z,1.30
2023-02-03T14:28:31.166Z,0.57
2023-02-03T14:31:53.185Z,1.17
2023-02-03T14:34:55.652Z,0.50
2023-02-03T14:38:02.298Z,0.45
2023-02-03T14:41:06.087Z,0.57
2023-02-03T14:44:53.289Z,0.67
2023-02-03T14:48:32.525Z,1.10
2023-02-03T14:51:46.847Z,1.23
2023-02-03T14:54:55.726Z,0.77
2023-02-03T14:58:06.420Z,1.33
2023-02-03T15:01:37.970Z,1.40
2023-02-03T15:04:41.496Z,1.13
2023-02-03T15:07:47.584Z,0.93
2023-02-03T15:10:49.939Z,1.00
2023-02-03T15:13:52.861Z,0.93
2023-02-03T15:17:31.324Z,1.23
2023-02-03T15:20:44.055Z,0.63
2023-02-03T15:23:49.351Z,1.90
2023-02-03T15:26:54.974Z,1.98
2023-02-03T15:29:59.208Z,3.00
2023-02-03T15:33:07.587Z,1.85
2023-02-03T15:36:18.311Z,2.15
2023-02-03T15:39:29.957Z,3.23
2023-02-03T15:42:58.002Z,3.50
2023-02-03T15:46:07.476Z,3.65
2023-02-03T15:49:30.210Z,3.23
2023-02-03T15:52:40.000Z,2.70
2023-02-03T15:55:46.973Z,3.47
2023-02-03T15:58:50.498Z,2.90
2023-02-03T16:01:53.942Z,2.03
2023-02-03T16:04:56.715Z,2.15
2023-02-03T16:08:36.779Z,2.90
2023-02-03T16:11:39.898Z,1.73
2023-02-03T16:14:43.277Z,2.70
2023-02-03T16:17:45.673Z,2.72
2023-02-03T16:20:50.961Z,1.97
2023-02-03T16:23:53.661Z,1.85
2023-02-03T16:26:56.091Z,2.25
2023-02-03T16:30:22.840Z,2.58
2023-02-03T16:33:43.498Z,2.90
2023-02-03T16:37:04.790Z,3.35
2023-02-03T16:40:26.176Z,2.55
2023-02-03T16:43:46.853Z,3.60
2023-02-03T16:47:08.244Z,3.70
2023-02-03T16:50:58.184Z,3.22
2023-02-03T16:54:01.492Z,2.93
2023-02-03T16:57:03.957Z,2.95
2023-02-03T17:00:08.692Z,3.75
2023-02-03T17:03:14.685Z,11.07
2023-02-03T17:06:17.137Z,3.38
2023-02-03T17:09:22.192Z,3.55
2023-02-03T17:12:25.687Z,3.75
2023-02-03T17:15:28.360Z,2.77
2023-02-03T17:18:31.380Z,3.45
2023-02-03T17:21:34.032Z,4.85
2023-02-03T17:24:36.389Z,5.37
2023-02-03T17:27:38.897Z,8.07
2023-02-03T17:30:41.738Z,4.80
2023-02-03T17:33:44.912Z,2.58
2023-02-03T17:36:47.327Z,4.47
2023-02-03T17:56:20.742Z,3.90
2023-02-03T17:59:23.508Z,7.72
2023-02-03T18:02:25.966Z,7.45
2023-02-03T18:05:29.040Z,8.02
2023-02-03T18:08:31.445Z,7.07
2023-02-03T18:11:36.145Z,7.43
2023-02-03T18:14:38.567Z,8.20
2023-02-03T18:17:40.944Z,5.27
2023-02-03T18:20:43.379Z,4.10
2023-02-03T18:23:46.549Z,4.13
2023-02-03T18:26:51.485Z,8.47
2023-02-03T18:29:54.158Z,4.85
2023-02-03T18:32:57.575Z,9.27
2023-02-03T18:36:01.759Z,5.32
2023-02-03T18:39:05.126Z,4.03
2023-02-03T18:42:07.931Z,4.00
2023-02-03T18:45:11.719Z,3.47
2023-02-03T18:48:14.378Z,3.27
2023-02-03T18:51:18.922Z,3.78
2023-02-03T18:54:21.526Z,3.15
2023-02-03T18:57:25.218Z,5.17
2023-02-03T19:00:28.012Z,4.53
2023-02-03T19:03:30.596Z,4.43
2023-02-03T19:06:34.745Z,4.50
2023-02-03T19:09:38.174Z,5.82
2023-02-03T19:12:40.993Z,5.63
2023-02-03T19:15:43.821Z,6.40
2023-02-03T19:18:47.562Z,8.83
2023-02-03T19:21:51.716Z,14.77
2023-02-03T19:24:55.839Z,11.35
2023-02-03T19:27:58.603Z,7.07
2023-02-03T19:31:13.199Z,8.35
2023-02-03T19:34:17.077Z,11.63
2023-02-03T19:37:19.776Z,9.45
2023-02-03T19:40:22.498Z,8.68
2023-02-03T19:43:25.288Z,10.98
2023-02-03T19:46:34.161Z,11.60
2023-02-03T19:49:36.796Z,11.53
2023-02-03T19:52:39.564Z,12.50
2023-02-03T19:55:46.307Z,10.70
2023-02-03T19:58:52.023Z,10.43
2023-02-03T20:01:56.586Z,10.35
2023-02-03T20:05:00.846Z,18.80
2023-02-03T20:08:04.894Z,19.90
2023-02-03T20:11:07.583Z,18.27
2023-02-03T20:14:11.261Z,22.98
2023-02-03T20:17:13.981Z,22.88
2023-02-03T20:20:19.203Z,22.13
2023-02-03T20:23:24.319Z,19.75
2023-02-03T20:26:26.919Z,17.15
2023-02-03T20:29:29.423Z,16.20
2023-02-03T20:32:32.219Z,14.70
2023-02-03T20:35:34.704Z,14.90
2023-02-03T20:38:37.893Z,17.67
2023-02-03T20:41:47.036Z,17.95
2023-02-03T20:44:50.277Z,15.95
2023-02-03T20:47:52.982Z,17.40
2023-02-03T20:50:55.795Z,16.33
2023-02-03T20:53:58.656Z,16.10
2023-02-03T20:57:02.243Z,15.75
2023-02-03T21:00:19.798Z,16.00
2023-02-03T21:03:41.807Z,16.50
2023-02-03T21:06:44.465Z,17.10
2023-02-03T21:09:47.147Z,15.30
2023-02-03T21:12:49.714Z,14.52
2023-02-03T21:15:55.032Z,17.17
2023-02-03T21:19:02.647Z,15.35
2023-02-03T21:22:18.049Z,13.77
2023-02-03T21:25:30.100Z,12.82
2023-02-03T21:28:32.766Z,18.85
2023-02-03T21:31:37.491Z,14.10
2023-02-03T21:34:43.011Z,19.85
2023-02-03T21:37:45.378Z,14.85
2023-02-03T21:40:47.906Z,10.57
2023-02-03T21:43:53.361Z,12.82
2023-02-03T21:46:56.336Z,11.38
2023-02-03T21:50:00.913Z,13.77
2023-02-03T21:53:10.054Z,11.63
2023-02-03T21:56:24.689Z,18.08
2023-02-03T21:59:36.851Z,25.17
2023-02-03T22:03:01.806Z,16.43
2023-02-03T22:06:18.661Z,9.52
2023-02-03T22:09:24.165Z,7.70
2023-02-03T22:12:26.538Z,8.30
2023-02-03T22:15:28.971Z,7.72
2023-02-03T22:18:31.794Z,8.23
2023-02-03T22:21:34.573Z,7.88
2023-02-03T22:24:36.982Z,9.57
2023-02-03T22:27:39.394Z,10.00
2023-02-03T22:30:41.994Z,8.85
2023-02-03T22:33:44.515Z,8.93
2023-02-03T22:36:46.888Z,9.48
2023-02-03T22:39:49.284Z,8.13
2023-02-03T22:42:52.245Z,8.07
2023-02-03T22:45:55.070Z,7.30
2023-02-03T22:48:57.638Z,5.70
2023-02-03T22:52:00.111Z,4.95
2023-02-03T22:55:03.162Z,6.23
2023-02-03T22:58:07.054Z,5.72
2023-02-03T23:01:09.490Z,5.20
2023-02-03T23:04:12.142Z,5.67
2023-02-03T23:07:14.430Z,6.20
2023-02-03T23:10:20.507Z,6.97
2023-02-03T23:13:23.309Z,6.75
2023-02-03T23:16:25.704Z,6.18
2023-02-03T23:19:28.612Z,7.40
2023-02-03T23:22:31.069Z,6.65
2023-02-03T23:25:33.463Z,5.77
2023-02-03T23:28:35.881Z,5.55
2023-02-03T23:31:38.347Z,6.03
2023-02-03T23:35:15.769Z,7.27
2023-02-03T23:38:18.873Z,6.32
2023-02-03T23:41:21.233Z,7.57
2023-02-03T23:44:23.851Z,5.47
2023-02-03T23:47:26.266Z,6.50
2023-02-03T23:50:28.952Z,6.03
2023-02-03T23:53:31.772Z,5.13
2023-02-03T23:56:34.078Z,5.17
2023-02-03T23:59:37.549Z,6.57
